createdAt,value
2019-05-07T00:01:05.525Z,11.87
2019-05-07T00:03:35.990Z,8.53
2019-05-07T00:06:06.930Z,5.90
2019-05-07T00:08:38.000Z,6.60
2019-05-07T00:11:10.067Z,9.00
2019-05-07T00:13:44.078Z,19.73
2019-05-07T00:16:12.868Z,7.00
2019-05-07T00:18:43.511Z,7.03
2019-05-07T00:21:14.269Z,9.47
2019-05-07T00:23:44.748Z,9.47
2019-05-07T00:26:16.706Z,7.13
2019-05-07T00:28:48.265Z,8.50
2019-05-07T00:31:19.692Z,10.03
2019-05-07T00:33:57.103Z,10.43
2019-05-07T00:36:35.089Z,8.67
2019-05-07T00:39:08.364Z,8.30
2019-05-07T00:41:46.406Z,12.03
2019-05-07T00:44:18.329Z,10.77
2019-05-07T00:46:48.736Z,9.00
2019-05-07T00:49:22.142Z,9.53
2019-05-07T00:51:53.364Z,7.37
2019-05-07T00:54:23.754Z,10.17
2019-05-07T00:56:54.195Z,7.97
2019-05-07T00:59:24.621Z,7.07
2019-05-07T01:01:55.012Z,11.10
2019-05-07T01:04:25.505Z,8.83
2019-05-07T01:06:55.905Z,11.77
2019-05-07T01:09:26.273Z,9.00
2019-05-07T01:11:56.688Z,7.80
2019-05-07T01:14:27.072Z,10.03
2019-05-07T01:16:57.502Z,6.97
2019-05-07T01:19:27.854Z,8.53
2019-05-07T01:21:58.287Z,7.17
2019-05-07T01:24:28.576Z,8.27
2019-05-07T01:26:58.970Z,12.37
2019-05-07T01:29:29.331Z,24.60
2019-05-07T01:32:03.142Z,20.90
2019-05-07T01:34:37.830Z,22.63
2019-05-07T01:37:08.384Z,18.67
2019-05-07T01:39:38.688Z,19.13
2019-05-07T01:42:09.449Z,17.97
2019-05-07T01:44:41.879Z,15.07
2019-05-07T01:47:13.090Z,12.43
2019-05-07T01:49:43.929Z,10.10
2019-05-07T01:52:14.374Z,9.95
2019-05-07T01:54:47.297Z,13.17
2019-05-07T01:57:17.047Z,11.47
2019-05-07T01:59:47.643Z,7.67
2019-05-07T02:02:19.681Z,8.77
2019-05-07T02:04:52.224Z,7.83
2019-05-07T02:07:25.341Z,7.20
2019-05-07T02:10:00.067Z,5.30
2019-05-07T02:12:32.122Z,9.25
2019-05-07T02:15:02.865Z,8.13
2019-05-07T02:17:46.266Z,7.70
2019-05-07T02:20:16.700Z,10.33
2019-05-07T02:22:47.183Z,9.00
2019-05-07T02:25:17.606Z,10.40
2019-05-07T02:27:48.024Z,9.17
2019-05-07T02:30:18.537Z,11.17
2019-05-07T02:32:49.025Z,7.47
2019-05-07T02:35:19.425Z,10.37
2019-05-07T02:37:56.877Z,9.73
2019-05-07T02:40:33.683Z,8.63
2019-05-07T02:43:03.043Z,13.97
2019-05-07T02:45:38.414Z,10.93
2019-05-07T02:48:09.310Z,12.43
2019-05-07T02:50:44.023Z,12.07
2019-05-07T02:53:18.081Z,11.68
2019-05-07T02:55:55.516Z,9.37
2019-05-07T02:58:25.957Z,9.37
2019-05-07T03:00:56.852Z,7.93
2019-05-07T03:03:27.240Z,10.70
2019-05-07T03:05:57.692Z,15.40
2019-05-07T03:08:28.181Z,14.20
2019-05-07T03:11:03.052Z,11.87
2019-05-07T03:13:33.673Z,12.33
2019-05-07T03:16:05.262Z,15.80
2019-05-07T03:18:39.105Z,13.80
2019-05-07T03:21:19.732Z,13.97
2019-05-07T03:24:03.543Z,10.40
2019-05-07T03:26:37.677Z,9.93
2019-05-07T03:29:12.857Z,11.60
2019-05-07T03:31:46.619Z,13.93
2019-05-07T03:34:30.034Z,10.03
2019-05-07T03:37:06.194Z,13.93
2019-05-07T03:39:34.382Z,13.67
2019-05-07T03:42:04.787Z,13.93
2019-05-07T03:44:53.739Z,11.07
2019-05-07T03:47:33.205Z,14.70
2019-05-07T03:50:33.640Z,8.77
2019-05-07T03:53:04.818Z,9.47
2019-05-07T03:55:44.230Z,12.90
2019-05-07T03:58:15.879Z,9.47
2019-05-07T04:00:53.157Z,12.20
2019-05-07T04:21:54.305Z,10.20
2019-05-07T04:24:44.302Z,14.03
2019-05-07T04:27:28.844Z,11.70
2019-05-07T04:33:13.406Z,12.03
2019-05-07T04:41:46.323Z,10.90
2019-05-07T04:44:18.252Z,11.80
2019-05-07T04:46:48.770Z,19.47
2019-05-07T04:49:19.255Z,14.27
2019-05-07T04:51:52.929Z,9.55
2019-05-07T04:54:23.902Z,19.13
2019-05-07T04:56:57.006Z,17.25
2019-05-07T04:59:28.921Z,13.07
2019-05-07T05:02:03.883Z,14.87
2019-05-07T05:19:40.410Z,8.05
2019-05-07T05:25:36.647Z,11.57
2019-05-07T05:28:21.944Z,8.90
2019-05-07T05:30:56.311Z,15.70
2019-05-07T08:16:42.850Z,6.47
2019-05-07T08:19:32.515Z,3.75
2019-05-07T08:26:06.805Z,6.58
2019-05-07T08:28:47.222Z,7.97
2019-05-07T08:31:38.024Z,10.15
2019-05-07T08:34:17.592Z,7.78
2019-05-07T08:37:06.651Z,8.58
2019-05-07T08:39:45.993Z,10.00
2019-05-07T08:42:17.544Z,6.30
2019-05-07T10:30:22.032Z,10.10
2019-05-07T10:33:13.011Z,10.40
2019-05-07T10:35:49.645Z,12.60
2019-05-07T10:38:22.057Z,11.97
2019-05-07T10:40:52.580Z,12.63
2019-05-07T10:43:23.606Z,9.33
2019-05-07T10:46:16.405Z,12.47
2019-05-07T11:29:12.974Z,11.40
2019-05-07T11:40:47.936Z,10.90
2019-05-07T11:43:37.033Z,9.08
2019-05-07T11:46:13.058Z,8.38
2019-05-07T11:49:07.955Z,50.92
2019-05-07T11:54:34.480Z,9.60
2019-05-07T11:57:07.363Z,17.15
2019-05-07T11:59:39.205Z,18.00
2019-05-07T12:02:12.106Z,22.67
2019-05-07T12:04:43.748Z,21.97
2019-05-07T12:07:14.196Z,20.48
2019-05-07T12:10:06.241Z,17.60
2019-05-07T12:13:05.386Z,18.82
2019-05-07T12:15:56.923Z,20.82
2019-05-07T12:21:52.765Z,25.05
2019-05-07T13:19:14.422Z,12.88
2019-05-07T13:21:49.869Z,14.45
2019-05-07T15:53:17.373Z,15.85
2019-05-07T15:55:53.804Z,14.90
2019-05-07T20:11:05.685Z,33.93
2019-05-07T20:13:36.759Z,33.03
2019-05-07T20:16:09.270Z,39.17
2019-05-07T20:21:55.146Z,38.40
2019-05-07T20:24:29.924Z,35.57
2019-05-07T20:27:04.150Z,38.37
2019-05-07T20:29:52.144Z,39.53
2019-05-07T20:32:29.332Z,42.40
2019-05-07T20:35:12.133Z,33.63
2019-05-07T21:20:22.928Z,48.58
2019-05-07T21:22:59.957Z,43.33
2019-05-07T21:28:43.737Z,39.80
2019-05-07T21:31:36.902Z,41.00
2019-05-07T21:43:50.064Z,35.27
2019-05-07T21:46:24.566Z,35.43
2019-05-07T21:48:56.245Z,40.77
2019-05-07T21:51:30.060Z,39.30
2019-05-07T21:54:08.102Z,43.87
2019-05-07T21:57:02.044Z,45.83
2019-05-07T21:59:35.783Z,43.37
2019-05-07T22:02:16.739Z,45.77
2019-05-07T22:04:47.120Z,50.33
2019-05-07T22:07:17.557Z,43.37
2019-05-07T22:09:50.004Z,42.47
2019-05-07T22:12:22.649Z,33.67
2019-05-07T22:14:56.840Z,40.47
2019-05-07T22:17:27.291Z,43.03
2019-05-07T22:19:57.736Z,44.20
2019-05-07T22:22:28.241Z,24.00
2019-05-07T22:24:58.636Z,29.33
2019-05-07T22:27:29.009Z,28.00
2019-05-07T22:29:59.390Z,20.13
2019-05-07T22:32:31.417Z,20.27
2019-05-07T22:35:03.464Z,24.03
2019-05-07T22:37:33.875Z,23.37
2019-05-07T22:40:06.634Z,26.43
2019-05-07T22:42:36.995Z,23.03
2019-05-07T22:45:07.528Z,26.07
2019-05-07T22:47:37.991Z,20.07
2019-05-07T22:50:08.447Z,20.90
2019-05-07T22:52:38.828Z,24.37
2019-05-07T22:55:09.392Z,22.03
2019-05-07T22:57:57.187Z,19.73
2019-05-07T23:00:42.678Z,22.20
2019-05-07T23:03:13.569Z,16.37
2019-05-07T23:05:44.887Z,18.10
2019-05-07T23:08:15.388Z,19.17
2019-05-07T23:10:46.898Z,18.43
2019-05-07T23:13:17.364Z,20.57
2019-05-07T23:15:47.779Z,25.73
2019-05-07T23:18:18.251Z,28.83
2019-05-07T23:20:48.722Z,30.50
2019-05-07T23:23:19.204Z,34.37
2019-05-07T23:25:49.612Z,32.77
2019-05-07T23:28:20.026Z,33.90
2019-05-07T23:30:51.903Z,36.47
2019-05-07T23:33:22.691Z,36.90
2019-05-07T23:35:53.131Z,32.30
2019-05-07T23:38:23.586Z,37.30
2019-05-07T23:41:04.456Z,40.50
2019-05-07T23:43:34.890Z,23.87
2019-05-07T23:46:05.312Z,25.47
2019-05-07T23:48:35.762Z,24.23
2019-05-07T23:51:06.181Z,32.43
2019-05-07T23:53:36.586Z,32.93
2019-05-07T23:56:06.979Z,31.13
2019-05-07T23:58:38.693Z,38.03
